createdAt,value
2023-10-29T00:01:01.216Z,7.89
2023-10-29T00:06:12.256Z,7.95
2023-10-29T00:11:14.328Z,7.92
2023-10-29T00:16:24.185Z,7.94
2023-10-29T00:21:27.107Z,7.95
2023-10-29T00:26:31.355Z,7.89
2023-10-29T00:31:33.685Z,7.86
2023-10-29T00:36:35.789Z,7.86
2023-10-29T00:41:40.089Z,7.86
2023-10-29T00:46:50.179Z,7.90
2023-10-29T00:51:57.038Z,7.91
2023-10-29T00:56:59.560Z,7.93
2023-10-29T01:02:01.612Z,7.95
2023-10-29T01:07:04.210Z,8.00
2023-10-29T01:12:16.066Z,7.98
2023-10-29T01:17:23.174Z,8.00
2023-10-29T01:22:25.485Z,8.02
2023-10-29T01:27:28.340Z,8.03
2023-10-29T01:32:33.764Z,8.05
2023-10-29T01:37:38.257Z,8.04
2023-10-29T01:42:41.396Z,8.05
2023-10-29T01:47:43.500Z,8.09
2023-10-29T01:52:46.770Z,8.10
2023-10-29T01:57:51.542Z,8.11
2023-10-29T02:02:57.951Z,8.04
2023-10-29T02:08:00.072Z,8.05
2023-10-29T02:13:02.117Z,8.09
2023-10-29T02:18:04.416Z,8.12
2023-10-29T02:23:06.517Z,8.09
2023-10-29T02:28:08.682Z,8.11
2023-10-29T02:33:11.808Z,8.13
2023-10-29T02:38:20.112Z,8.09
2023-10-29T02:43:23.334Z,8.08
2023-10-29T02:48:32.526Z,8.10
2023-10-29T02:53:34.865Z,8.09
2023-10-29T02:58:37.202Z,8.13
2023-10-29T03:03:41.387Z,8.10
2023-10-29T03:08:47.947Z,8.11
2023-10-29T03:13:50.014Z,8.08
2023-10-29T03:18:52.003Z,8.09
2023-10-29T03:23:55.014Z,8.11
2023-10-29T03:28:59.170Z,8.07
2023-10-29T03:34:05.685Z,8.08
2023-10-29T03:39:07.608Z,8.10
2023-10-29T03:44:09.620Z,8.13
2023-10-29T03:49:24.238Z,8.10
2023-10-29T03:54:26.432Z,8.13
2023-10-29T03:59:29.552Z,8.14
2023-10-29T04:04:33.289Z,8.13
2023-10-29T04:09:35.271Z,8.18
2023-10-29T04:14:38.372Z,8.18
2023-10-29T04:19:40.266Z,8.20
2023-10-29T04:24:43.131Z,8.20
2023-10-29T04:29:46.074Z,8.19
2023-10-29T04:34:49.356Z,8.20
2023-10-29T04:39:53.216Z,8.22
2023-10-29T04:44:55.231Z,8.23
2023-10-29T04:49:57.396Z,8.23
2023-10-29T04:55:07.479Z,8.23
2023-10-29T05:00:10.453Z,8.22
2023-10-29T05:05:12.946Z,8.22
2023-10-29T05:10:15.040Z,8.23
2023-10-29T05:15:18.916Z,8.27
2023-10-29T05:20:21.048Z,8.28
2023-10-29T05:25:28.546Z,8.30
2023-10-29T05:30:37.516Z,8.32
2023-10-29T05:35:39.827Z,8.34
2023-10-29T05:40:43.932Z,8.34
2023-10-29T05:46:00.422Z,8.37
2023-10-29T05:51:04.785Z,8.39
2023-10-29T05:56:07.718Z,8.42
2023-10-29T06:01:10.166Z,8.50
2023-10-29T06:06:18.091Z,8.50
2023-10-29T06:11:20.200Z,8.53
2023-10-29T06:16:25.957Z,8.56
2023-10-29T06:21:28.086Z,8.65
2023-10-29T06:26:31.202Z,8.65
2023-10-29T06:31:34.584Z,8.72
2023-10-29T06:36:36.763Z,8.83
2023-10-29T06:41:40.161Z,8.94
2023-10-29T06:46:46.655Z,9.00
2023-10-29T06:51:52.491Z,9.04
2023-10-29T06:56:55.857Z,9.16
2023-10-29T07:02:00.646Z,9.28
2023-10-29T07:07:03.658Z,9.44
2023-10-29T07:12:07.353Z,9.70
2023-10-29T07:17:15.660Z,9.93
2023-10-29T07:22:17.898Z,10.14
2023-10-29T07:27:19.901Z,10.34
2023-10-29T07:32:24.145Z,10.17
2023-10-29T07:37:26.088Z,10.78
2023-10-29T07:42:28.050Z,11.11
2023-10-29T07:47:30.088Z,11.31
2023-10-29T07:52:41.219Z,11.28
2023-10-29T07:57:43.316Z,11.47
2023-10-29T08:02:49.957Z,11.97
2023-10-29T08:07:51.947Z,12.48
2023-10-29T08:12:53.988Z,12.82
2023-10-29T08:17:56.335Z,13.12
2023-10-29T08:22:58.490Z,13.61
2023-10-29T08:28:00.554Z,13.50
2023-10-29T08:33:08.335Z,13.88
2023-10-29T08:38:10.441Z,13.44
2023-10-29T08:43:12.438Z,13.87
2023-10-29T08:48:15.579Z,13.54
2023-10-29T08:53:18.727Z,13.77
2023-10-29T08:58:22.240Z,13.91
2023-10-29T09:03:27.052Z,14.15
2023-10-29T09:08:29.349Z,13.93
2023-10-29T09:13:31.533Z,13.90
2023-10-29T09:18:34.670Z,13.84
2023-10-29T09:23:38.085Z,13.83
2023-10-29T09:28:40.640Z,13.69
2023-10-29T09:33:42.726Z,13.69
2023-10-29T09:38:45.119Z,13.63
2023-10-29T09:43:52.473Z,13.81
2023-10-29T09:48:58.349Z,14.34
2023-10-29T09:54:01.649Z,14.55
2023-10-29T09:59:08.474Z,14.91
2023-10-29T10:04:11.659Z,15.07
2023-10-29T10:09:15.622Z,15.46
2023-10-29T10:14:29.490Z,15.51
2023-10-29T10:19:31.654Z,15.55
2023-10-29T10:24:47.560Z,15.84
2023-10-29T10:29:57.080Z,15.66
2023-10-29T10:35:01.495Z,15.68
2023-10-29T10:40:23.142Z,15.62
2023-10-29T10:45:29.357Z,15.91
2023-10-29T10:50:34.433Z,15.88
2023-10-29T10:55:55.046Z,16.05
2023-10-29T11:01:07.790Z,16.11
2023-10-29T11:06:12.610Z,15.94
2023-10-29T11:11:15.571Z,15.80
2023-10-29T11:16:28.128Z,15.46
2023-10-29T11:21:36.273Z,15.47
2023-10-29T11:26:39.422Z,15.77
2023-10-29T11:31:45.881Z,15.53
2023-10-29T11:36:48.314Z,15.89
2023-10-29T11:41:51.145Z,16.11
2023-10-29T11:47:05.166Z,16.03
2023-10-29T11:52:12.358Z,16.01
2023-10-29T11:57:15.482Z,16.28
2023-10-29T12:02:17.783Z,16.11
2023-10-29T12:07:33.081Z,16.18
2023-10-29T12:12:36.134Z,16.34
2023-10-29T12:17:47.231Z,16.24
2023-10-29T12:22:56.238Z,16.29
2023-10-29T12:27:58.501Z,16.24
2023-10-29T12:33:28.334Z,16.33
2023-10-29T12:38:30.752Z,16.32
2023-10-29T12:43:41.944Z,16.41
2023-10-29T12:49:00.833Z,16.35
2023-10-29T12:54:32.130Z,16.40
2023-10-29T12:59:34.991Z,16.44
2023-10-29T13:04:38.533Z,16.35
2023-10-29T13:09:44.604Z,16.36
2023-10-29T13:14:47.935Z,16.27
2023-10-29T13:19:53.201Z,16.18
2023-10-29T13:24:57.911Z,16.12
2023-10-29T13:30:01.562Z,16.08
2023-10-29T13:35:04.280Z,16.14
2023-10-29T13:40:08.102Z,16.17
2023-10-29T13:45:10.224Z,16.16
2023-10-29T13:50:12.336Z,16.29
2023-10-29T13:55:14.612Z,16.32
2023-10-29T14:00:17.727Z,16.49
2023-10-29T14:05:20.014Z,16.45
2023-10-29T14:10:24.137Z,16.40
2023-10-29T14:15:26.274Z,16.35
2023-10-29T14:20:28.818Z,16.23
2023-10-29T14:25:31.158Z,16.17
2023-10-29T14:30:38.892Z,16.06
2023-10-29T14:35:43.071Z,15.98
2023-10-29T14:40:45.534Z,15.87
2023-10-29T14:45:47.746Z,15.69
2023-10-29T14:50:50.288Z,15.69
2023-10-29T14:55:52.456Z,15.61
2023-10-29T15:00:55.786Z,15.50
2023-10-29T15:05:57.996Z,15.45
2023-10-29T15:11:01.364Z,15.41
2023-10-29T15:16:05.496Z,15.29
2023-10-29T15:21:14.248Z,15.24
2023-10-29T15:26:22.780Z,15.09
2023-10-29T15:31:26.376Z,14.93
2023-10-29T15:36:32.785Z,15.00
2023-10-29T15:41:38.511Z,14.82
2023-10-29T15:46:44.269Z,14.81
2023-10-29T15:51:48.188Z,14.81
2023-10-29T15:56:52.354Z,14.88
2023-10-29T16:01:56.769Z,14.81
2023-10-29T16:07:03.090Z,14.79
2023-10-29T16:12:10.800Z,14.75
2023-10-29T16:17:14.916Z,14.58
2023-10-29T16:22:18.354Z,14.42
2023-10-29T16:27:27.235Z,14.30
2023-10-29T16:32:33.330Z,14.25
2023-10-29T16:37:44.664Z,14.03
2023-10-29T16:42:49.597Z,14.08
2023-10-29T16:47:55.467Z,14.00
2023-10-29T16:52:58.270Z,13.89
2023-10-29T16:58:03.406Z,13.83
2023-10-29T17:03:06.267Z,13.75
2023-10-29T17:08:08.763Z,13.61
2023-10-29T17:13:11.657Z,13.50
2023-10-29T17:18:15.308Z,13.44
2023-10-29T17:23:23.883Z,13.50
2023-10-29T17:28:30.033Z,13.38
2023-10-29T17:33:33.179Z,13.40
2023-10-29T17:38:36.816Z,13.44
2023-10-29T17:43:42.591Z,13.43
2023-10-29T17:48:49.952Z,13.34
2023-10-29T17:53:56.441Z,13.38
2023-10-29T17:59:01.250Z,13.40
2023-10-29T18:04:08.519Z,13.38
2023-10-29T18:09:11.496Z,13.38
2023-10-29T18:14:15.495Z,13.44
2023-10-29T18:19:23.736Z,13.38
2023-10-29T18:24:30.988Z,13.31
2023-10-29T18:29:34.763Z,13.31
2023-10-29T18:34:44.871Z,13.26
2023-10-29T18:39:53.783Z,13.27
2023-10-29T18:44:57.797Z,13.31
2023-10-29T18:50:10.069Z,13.43
2023-10-29T18:55:13.240Z,13.50
2023-10-29T19:00:22.486Z,13.39
2023-10-29T19:05:27.612Z,13.48
2023-10-29T19:10:36.785Z,13.56
2023-10-29T19:15:40.173Z,13.72
2023-10-29T19:20:46.034Z,13.61
2023-10-29T19:25:49.393Z,13.35
2023-10-29T19:31:15.827Z,13.27
2023-10-29T19:36:19.148Z,13.26
2023-10-29T19:41:23.409Z,13.14
2023-10-29T19:46:27.725Z,13.03
2023-10-29T19:51:31.093Z,12.93
2023-10-29T19:56:35.281Z,12.85
2023-10-29T20:01:39.369Z,12.87
2023-10-29T20:06:42.795Z,12.86
2023-10-29T20:11:45.443Z,12.72
2023-10-29T20:16:52.241Z,12.65
2023-10-29T20:21:59.462Z,12.61
2023-10-29T20:27:03.255Z,12.61
2023-10-29T20:32:09.240Z,12.67
2023-10-29T20:37:12.237Z,12.65
2023-10-29T20:42:16.105Z,12.68
2023-10-29T20:47:30.655Z,12.71
2023-10-29T20:52:46.858Z,12.84
2023-10-29T20:57:59.423Z,12.96
2023-10-29T21:03:02.919Z,13.07
2023-10-29T21:08:08.494Z,13.30
2023-10-29T21:13:16.943Z,13.21
2023-10-29T21:18:26.763Z,13.44
2023-10-29T21:23:37.734Z,13.43
2023-10-29T21:28:59.620Z,13.42
2023-10-29T21:34:14.165Z,13.36
2023-10-29T21:39:19.271Z,13.11
2023-10-29T21:44:22.516Z,13.10
2023-10-29T21:49:31.465Z,13.04
2023-10-29T21:54:34.557Z,13.02
2023-10-29T21:59:37.328Z,12.97
2023-10-29T22:04:39.595Z,12.93
2023-10-29T22:09:41.626Z,12.98
2023-10-29T22:14:43.837Z,12.99
2023-10-29T22:19:46.061Z,12.89
2023-10-29T22:24:49.245Z,13.00
2023-10-29T22:29:51.507Z,13.13
2023-10-29T22:34:53.578Z,12.97
2023-10-29T22:39:55.751Z,13.00
2023-10-29T22:44:58.892Z,13.05
2023-10-29T22:50:00.943Z,13.05
2023-10-29T22:55:02.925Z,12.99
2023-10-29T23:00:13.192Z,13.05
2023-10-29T23:05:16.090Z,12.97
2023-10-29T23:10:18.388Z,12.85
2023-10-29T23:15:21.574Z,12.86
2023-10-29T23:20:23.787Z,12.84
2023-10-29T23:25:25.810Z,12.83
2023-10-29T23:30:28.825Z,12.87
2023-10-29T23:35:30.936Z,13.11
2023-10-29T23:40:33.058Z,13.14
2023-10-29T23:45:35.210Z,13.25
2023-10-29T23:50:37.239Z,13.33
2023-10-29T23:55:40.190Z,13.45
